Canovanas, PR

11:50 AM AST on February 08, 2016 (GMT -0400)
Ciudad Jardin | | Change Station
CLOSE
Current Station
Personal Weather Station
Location: Carolina, PR
Elevation: 10 ft
Nearby Weather Stations

Elev 10 ft 18.37 °N, 65.93 °W | Updated 9 seconds ago

Partly Cloudy
Partly Cloudy
88.6 °F
Feels Like 97 °F
N
0.0
Wind Variable Wind from West
Gusts 0.0 mph

Today
High -- | Low -- °F
--% Chance of Precip.
Yesterday
High -- | Low -- °F
Precip. -- in
Pressure 30.08 in
Visibility 9.0 miles
Clouds Few 3000 ft
Heat Index 97 °F
Dew Point 73 °F
Humidity 61%
Rainfall 0.00 in
Snow Depth Not available.
6:54 AM 6:21 PM
New Moon, 0% visible
METAR TJSJ 081456Z VRB05KT 9SM FEW030 27/22 A3008 RMK AO2 SLP184 HZ ALQDS T02720217 50012
Pressure 30.08 in
Visibility 9.0 miles
Clouds Few 3000 ft
Heat Index 97 °F
Dew Point 73 °F
Humidity 61%
Rainfall 0.00 in
Snow Depth Not available.
6:54 AM 6:21 PM
New Moon, 0% visible
METAR TJSJ 081456Z VRB05KT 9SM FEW030 27/22 A3008 RMK AO2 SLP184 HZ ALQDS T02720217 50012

10-Day Weather Forecast

Almanac

Astronomy

Feb. 08, 2016 Rise Set
Actual Time
Civil Twilight
Nautical Twilight
Astronomical Twilight
Moon
Length of Visible Light
Length of Day
Tomorrow will be .
, % of the Moon is Illuminated

Today's Extremes

State Highs State Lows

Community

WunderPhotos

Upload Photos

1,891,440 photos uploaded!

WunderBlog® & News

Nearby

Air Quality

  Air Quality AQ Index Pollutant
Not available.

Snow Depth

Station Depth Elevation

Earthquake Activity

City Distance Mag. Time & Date
Minimum magnitude displayed is 2.5.

Coastal Water Temperatures

Place Temperature

Stations

Nearby Weather Stations

Station Location Temp. Windchill Dew Point Humidity Wind Precip. Elev Updated Type
                   

Watches & Warnings

There are currently no watches in effect.